sensor_id;sensor_type;location;lat;lon;timestamp;temperature;humidity
14411;DHT22;7290;50.854;4.354;2023-08-01T00:01:08;17.90;99.90
14411;DHT22;7290;50.854;4.354;2023-08-01T00:03:35;18.00;99.90
14411;DHT22;7290;50.854;4.354;2023-08-01T00:06:01;18.00;99.90
14411;DHT22;7290;50.854;4.354;2023-08-01T00:08:28;18.10;99.90
14411;DHT22;7290;50.854;4.354;2023-08-01T00:10:54;18.00;99.90
14411;DHT22;7290;50.854;4.354;2023-08-01T00:13:21;18.00;99.90
14411;DHT22;7290;50.854;4.354;2023-08-01T00:15:47;18.00;99.90
14411;DHT22;7290;50.854;4.354;2023-08-01T00:18:13;18.00;99.90
14411;DHT22;7290;50.854;4.354;2023-08-01T00:20:39;18.00;99.90
14411;DHT22;7290;50.854;4.354;2023-08-01T00:23:05;17.90;99.90
14411;DHT22;7290;50.854;4.354;2023-08-01T00:25:32;17.90;99.90
14411;DHT22;7290;50.854;4.354;2023-08-01T00:27:59;17.90;99.90
14411;DHT22;7290;50.854;4.354;2023-08-01T00:30:25;18.00;99.90
14411;DHT22;7290;50.854;4.354;2023-08-01T00:32:51;18.00;99.90
14411;DHT22;7290;50.854;4.354;2023-08-01T00:35:18;18.00;99.90
14411;DHT22;7290;50.854;4.354;2023-08-01T00:37:44;18.00;99.90
14411;DHT22;7290;50.854;4.354;2023-08-01T00:40:11;17.90;99.90
14411;DHT22;7290;50.854;4.354;2023-08-01T00:42:38;17.90;99.90
14411;DHT22;7290;50.854;4.354;2023-08-01T00:45:05;17.90;99.90
14411;DHT22;7290;50.854;4.354;2023-08-01T00:47:32;17.70;99.90
14411;DHT22;7290;50.854;4.354;2023-08-01T00:49:58;17.80;99.90
14411;DHT22;7290;50.854;4.354;2023-08-01T00:52:25;17.90;99.90
14411;DHT22;7290;50.854;4.354;2023-08-01T00:54:52;17.80;99.90
14411;DHT22;7290;50.854;4.354;2023-08-01T00:57:18;17.80;99.90
14411;DHT22;7290;50.854;4.354;2023-08-01T00:59:45;17.80;99.90
14411;DHT22;7290;50.854;4.354;2023-08-01T01:02:11;17.90;99.90
14411;DHT22;7290;50.854;4.354;2023-08-01T01:04:38;17.90;99.90
14411;DHT22;7290;50.854;4.354;2023-08-01T01:07:06;17.90;99.90
14411;DHT22;7290;50.854;4.354;2023-08-01T01:09:33;17.90;99.90
14411;DHT22;7290;50.854;4.354;2023-08-01T01:12:00;17.80;99.90
14411;DHT22;7290;50.854;4.354;2023-08-01T01:14:26;17.70;99.90
14411;DHT22;7290;50.854;4.354;2023-08-01T01:16:53;17.70;99.90
14411;DHT22;7290;50.854;4.354;2023-08-01T01:19:20;17.60;99.90
14411;DHT22;7290;50.854;4.354;2023-08-01T01:21:47;17.70;99.90
14411;DHT22;7290;50.854;4.354;2023-08-01T01:24:14;17.70;99.90
14411;DHT22;7290;50.854;4.354;2023-08-01T01:26:43;17.60;99.90
14411;DHT22;7290;50.854;4.354;2023-08-01T01:29:09;17.60;99.90
14411;DHT22;7290;50.854;4.354;2023-08-01T01:31:37;17.70;99.90
14411;DHT22;7290;50.854;4.354;2023-08-01T01:34:04;17.70;99.90
14411;DHT22;7290;50.854;4.354;2023-08-01T01:36:30;17.70;99.90
14411;DHT22;7290;50.854;4.354;2023-08-01T01:38:57;17.80;99.90
14411;DHT22;7290;50.854;4.354;2023-08-01T01:41:23;17.80;99.90
14411;DHT22;7290;50.854;4.354;2023-08-01T01:43:49;17.70;99.90
14411;DHT22;7290;50.854;4.354;2023-08-01T01:46:15;17.50;99.90
14411;DHT22;7290;50.854;4.354;2023-08-01T01:48:42;17.50;99.90
14411;DHT22;7290;50.854;4.354;2023-08-01T01:51:08;17.50;99.90
14411;DHT22;7290;50.854;4.354;2023-08-01T01:53:34;17.50;99.90
14411;DHT22;7290;50.854;4.354;2023-08-01T01:56:01;17.50;99.90
14411;DHT22;7290;50.854;4.354;2023-08-01T01:58:27;17.50;99.90
14411;DHT22;7290;50.854;4.354;2023-08-01T02:00:53;17.40;99.90
14411;DHT22;7290;50.854;4.354;2023-08-01T02:03:19;17.50;99.90
14411;DHT22;7290;50.854;4.354;2023-08-01T02:05:45;17.40;99.90
14411;DHT22;7290;50.854;4.354;2023-08-01T02:08:12;17.30;99.90
14411;DHT22;7290;50.854;4.354;2023-08-01T02:10:38;17.30;99.90
14411;DHT22;7290;50.854;4.354;2023-08-01T02:13:06;17.20;99.90
14411;DHT22;7290;50.854;4.354;2023-08-01T02:15:32;17.20;99.90
14411;DHT22;7290;50.854;4.354;2023-08-01T02:17:58;17.30;99.90
14411;DHT22;7290;50.854;4.354;2023-08-01T02:20:24;17.40;99.90
14411;DHT22;7290;50.854;4.354;2023-08-01T02:22:50;17.40;99.90
14411;DHT22;7290;50.854;4.354;2023-08-01T02:25:16;17.30;99.90
14411;DHT22;7290;50.854;4.354;2023-08-01T02:27:42;17.30;99.90
14411;DHT22;7290;50.854;4.354;2023-08-01T02:30:11;17.30;99.90
14411;DHT22;7290;50.854;4.354;2023-08-01T02:32:37;17.30;99.90
14411;DHT22;7290;50.854;4.354;2023-08-01T02:35:04;17.30;99.90
14411;DHT22;7290;50.854;4.354;2023-08-01T02:37:30;17.40;99.90
14411;DHT22;7290;50.854;4.354;2023-08-01T02:39:56;17.30;99.90
14411;DHT22;7290;50.854;4.354;2023-08-01T02:42:24;17.10;99.90
14411;DHT22;7290;50.854;4.354;2023-08-01T02:44:51;17.20;99.90
14411;DHT22;7290;50.854;4.354;2023-08-01T02:47:17;17.30;99.90
14411;DHT22;7290;50.854;4.354;2023-08-01T02:49:44;17.30;99.90
14411;DHT22;7290;50.854;4.354;2023-08-01T02:52:10;17.30;99.90
14411;DHT22;7290;50.854;4.354;2023-08-01T02:54:36;17.30;99.90
14411;DHT22;7290;50.854;4.354;2023-08-01T02:57:03;17.30;99.90
14411;DHT22;7290;50.854;4.354;2023-08-01T02:59:29;17.30;99.90
14411;DHT22;7290;50.854;4.354;2023-08-01T03:01:59;17.30;99.90
14411;DHT22;7290;50.854;4.354;2023-08-01T03:04:26;17.10;99.90
14411;DHT22;7290;50.854;4.354;2023-08-01T03:06:53;17.10;99.90
14411;DHT22;7290;50.854;4.354;2023-08-01T03:09:19;17.20;99.90
14411;DHT22;7290;50.854;4.354;2023-08-01T03:11:45;17.20;99.90
14411;DHT22;7290;50.854;4.354;2023-08-01T03:14:11;17.30;99.90
14411;DHT22;7290;50.854;4.354;2023-08-01T03:16:37;17.40;99.90
14411;DHT22;7290;50.854;4.354;2023-08-01T03:19:03;17.40;99.90
14411;DHT22;7290;50.854;4.354;2023-08-01T03:21:31;17.40;99.90
14411;DHT22;7290;50.854;4.354;2023-08-01T03:23:57;17.40;99.90
14411;DHT22;7290;50.854;4.354;2023-08-01T03:26:24;17.30;99.90
14411;DHT22;7290;50.854;4.354;2023-08-01T03:28:50;17.40;99.90
14411;DHT22;7290;50.854;4.354;2023-08-01T03:31:16;17.40;99.90
14411;DHT22;7290;50.854;4.354;2023-08-01T03:33:42;17.40;99.90
14411;DHT22;7290;50.854;4.354;2023-08-01T03:36:09;17.30;99.90
14411;DHT22;7290;50.854;4.354;2023-08-01T03:38:35;17.30;99.90
14411;DHT22;7290;50.854;4.354;2023-08-01T03:41:02;17.40;99.90
14411;DHT22;7290;50.854;4.354;2023-08-01T03:43:29;17.30;99.90
14411;DHT22;7290;50.854;4.354;2023-08-01T03:45:55;17.30;99.90
14411;DHT22;7290;50.854;4.354;2023-08-01T03:48:22;17.30;99.90
14411;DHT22;7290;50.854;4.354;2023-08-01T03:50:48;17.40;99.90
14411;DHT22;7290;50.854;4.354;2023-08-01T03:53:14;17.50;99.90
14411;DHT22;7290;50.854;4.354;2023-08-01T03:55:41;17.40;99.90
14411;DHT22;7290;50.854;4.354;2023-08-01T03:58:08;17.30;99.90
14411;DHT22;7290;50.854;4.354;2023-08-01T04:00:34;17.30;99.90
14411;DHT22;7290;50.854;4.354;2023-08-01T04:03:00;17.30;99.90
14411;DHT22;7290;50.854;4.354;2023-08-01T04:05:27;17.40;99.90
14411;DHT22;7290;50.854;4.354;2023-08-01T04:07:54;17.10;99.90
14411;DHT22;7290;50.854;4.354;2023-08-01T04:10:20;17.10;99.90
14411;DHT22;7290;50.854;4.354;2023-08-01T04:12:47;17.10;99.90
14411;DHT22;7290;50.854;4.354;2023-08-01T04:15:13;17.20;99.90
14411;DHT22;7290;50.854;4.354;2023-08-01T04:17:39;17.30;99.90
14411;DHT22;7290;50.854;4.354;2023-08-01T04:20:06;17.20;99.90
14411;DHT22;7290;50.854;4.354;2023-08-01T04:22:33;17.10;99.90
14411;DHT22;7290;50.854;4.354;2023-08-01T04:25:01;17.10;99.90
14411;DHT22;7290;50.854;4.354;2023-08-01T04:27:27;17.10;99.90
14411;DHT22;7290;50.854;4.354;2023-08-01T04:29:55;17.10;99.90
14411;DHT22;7290;50.854;4.354;2023-08-01T04:32:21;17.20;99.90
14411;DHT22;7290;50.854;4.354;2023-08-01T04:34:47;17.10;99.90
14411;DHT22;7290;50.854;4.354;2023-08-01T04:37:14;17.10;99.90
14411;DHT22;7290;50.854;4.354;2023-08-01T04:39:40;17.20;99.90
14411;DHT22;7290;50.854;4.354;2023-08-01T04:42:06;17.30;99.90
14411;DHT22;7290;50.854;4.354;2023-08-01T04:44:32;17.20;99.90
14411;DHT22;7290;50.854;4.354;2023-08-01T04:46:59;17.00;99.90
14411;DHT22;7290;50.854;4.354;2023-08-01T04:49:25;16.80;99.90
14411;DHT22;7290;50.854;4.354;2023-08-01T04:51:52;16.80;99.90
14411;DHT22;7290;50.854;4.354;2023-08-01T04:54:18;16.70;99.90
14411;DHT22;7290;50.854;4.354;2023-08-01T04:56:44;16.80;99.90
14411;DHT22;7290;50.854;4.354;2023-08-01T04:59:10;17.00;99.90
14411;DHT22;7290;50.854;4.354;2023-08-01T05:01:37;17.10;99.90
14411;DHT22;7290;50.854;4.354;2023-08-01T05:04:04;17.20;99.90
14411;DHT22;7290;50.854;4.354;2023-08-01T05:06:30;17.30;99.90
14411;DHT22;7290;50.854;4.354;2023-08-01T05:08:56;17.40;99.90
14411;DHT22;7290;50.854;4.354;2023-08-01T05:11:22;17.40;99.90
14411;DHT22;7290;50.854;4.354;2023-08-01T05:13:49;17.30;99.90
14411;DHT22;7290;50.854;4.354;2023-08-01T05:16:15;17.20;99.90
14411;DHT22;7290;50.854;4.354;2023-08-01T05:18:41;17.30;99.90
14411;DHT22;7290;50.854;4.354;2023-08-01T05:21:08;17.10;99.90
14411;DHT22;7290;50.854;4.354;2023-08-01T05:23:35;17.20;99.90
14411;DHT22;7290;50.854;4.354;2023-08-01T05:26:02;17.30;99.90
14411;DHT22;7290;50.854;4.354;2023-08-01T05:28:28;17.20;99.90
14411;DHT22;7290;50.854;4.354;2023-08-01T05:30:54;17.30;99.90
14411;DHT22;7290;50.854;4.354;2023-08-01T05:33:20;17.30;99.90
14411;DHT22;7290;50.854;4.354;2023-08-01T05:35:48;17.50;99.90
14411;DHT22;7290;50.854;4.354;2023-08-01T05:38:15;17.70;99.90
14411;DHT22;7290;50.854;4.354;2023-08-01T05:40:41;17.70;99.90
14411;DHT22;7290;50.854;4.354;2023-08-01T05:43:07;17.70;99.90
14411;DHT22;7290;50.854;4.354;2023-08-01T05:45:34;17.70;99.90
14411;DHT22;7290;50.854;4.354;2023-08-01T05:48:01;17.60;99.90
14411;DHT22;7290;50.854;4.354;2023-08-01T05:50:27;17.70;99.90
14411;DHT22;7290;50.854;4.354;2023-08-01T05:52:53;17.80;99.90
14411;DHT22;7290;50.854;4.354;2023-08-01T05:55:20;18.00;99.90
14411;DHT22;7290;50.854;4.354;2023-08-01T05:57:47;18.10;99.90
14411;DHT22;7290;50.854;4.354;2023-08-01T06:00:15;18.00;99.90
14411;DHT22;7290;50.854;4.354;2023-08-01T06:02:41;17.90;99.90
14411;DHT22;7290;50.854;4.354;2023-08-01T06:05:08;17.90;99.90
14411;DHT22;7290;50.854;4.354;2023-08-01T06:07:34;18.00;99.90
14411;DHT22;7290;50.854;4.354;2023-08-01T06:10:00;18.00;99.90
14411;DHT22;7290;50.854;4.354;2023-08-01T06:12:28;18.20;99.90
14411;DHT22;7290;50.854;4.354;2023-08-01T06:14:54;18.10;99.90
14411;DHT22;7290;50.854;4.354;2023-08-01T06:17:22;18.10;99.90
14411;DHT22;7290;50.854;4.354;2023-08-01T06:19:48;18.10;99.90
14411;DHT22;7290;50.854;4.354;2023-08-01T06:22:15;18.20;99.90
14411;DHT22;7290;50.854;4.354;2023-08-01T06:24:41;18.20;99.90
14411;DHT22;7290;50.854;4.354;2023-08-01T06:27:08;18.50;99.90
14411;DHT22;7290;50.854;4.354;2023-08-01T06:29:35;18.80;99.90
14411;DHT22;7290;50.854;4.354;2023-08-01T06:32:03;18.90;99.90
14411;DHT22;7290;50.854;4.354;2023-08-01T06:34:30;18.90;99.90
14411;DHT22;7290;50.854;4.354;2023-08-01T06:36:56;18.90;99.90
14411;DHT22;7290;50.854;4.354;2023-08-01T06:39:23;18.90;99.90
14411;DHT22;7290;50.854;4.354;2023-08-01T06:41:49;18.80;99.90
14411;DHT22;7290;50.854;4.354;2023-08-01T06:44:15;18.70;99.90
14411;DHT22;7290;50.854;4.354;2023-08-01T06:46:42;18.40;99.90
14411;DHT22;7290;50.854;4.354;2023-08-01T06:49:12;18.30;99.90
14411;DHT22;7290;50.854;4.354;2023-08-01T06:51:38;18.30;99.90
14411;DHT22;7290;50.854;4.354;2023-08-01T06:54:05;18.40;99.90
14411;DHT22;7290;50.854;4.354;2023-08-01T06:56:33;18.60;99.90
14411;DHT22;7290;50.854;4.354;2023-08-01T06:58:59;18.90;99.90
14411;DHT22;7290;50.854;4.354;2023-08-01T07:01:25;19.90;99.90
14411;DHT22;7290;50.854;4.354;2023-08-01T07:03:52;20.70;99.90
14411;DHT22;7290;50.854;4.354;2023-08-01T07:06:19;21.10;99.90
14411;DHT22;7290;50.854;4.354;2023-08-01T07:08:45;20.40;99.90
14411;DHT22;7290;50.854;4.354;2023-08-01T07:11:11;20.10;99.90
14411;DHT22;7290;50.854;4.354;2023-08-01T07:13:37;19.90;99.90
14411;DHT22;7290;50.854;4.354;2023-08-01T07:16:04;19.90;99.90
14411;DHT22;7290;50.854;4.354;2023-08-01T07:18:33;19.50;99.90
14411;DHT22;7290;50.854;4.354;2023-08-01T07:21:00;19.70;99.90
14411;DHT22;7290;50.854;4.354;2023-08-01T07:23:28;19.80;99.90
14411;DHT22;7290;50.854;4.354;2023-08-01T07:25:55;19.70;99.90
14411;DHT22;7290;50.854;4.354;2023-08-01T07:28:21;19.60;99.90
14411;DHT22;7290;50.854;4.354;2023-08-01T07:30:47;19.60;99.90
14411;DHT22;7290;50.854;4.354;2023-08-01T07:33:14;19.70;99.90
14411;DHT22;7290;50.854;4.354;2023-08-01T07:35:40;20.20;99.90
14411;DHT22;7290;50.854;4.354;2023-08-01T07:38:07;20.40;99.90
14411;DHT22;7290;50.854;4.354;2023-08-01T07:40:36;19.90;99.90
14411;DHT22;7290;50.854;4.354;2023-08-01T07:43:02;19.70;99.90
14411;DHT22;7290;50.854;4.354;2023-08-01T07:45:29;19.60;99.90
14411;DHT22;7290;50.854;4.354;2023-08-01T07:47:55;19.30;99.90
14411;DHT22;7290;50.854;4.354;2023-08-01T07:50:21;19.20;99.90
14411;DHT22;7290;50.854;4.354;2023-08-01T07:52:48;19.30;99.90
14411;DHT22;7290;50.854;4.354;2023-08-01T07:55:15;19.70;99.90
14411;DHT22;7290;50.854;4.354;2023-08-01T07:57:42;19.80;99.90
14411;DHT22;7290;50.854;4.354;2023-08-01T08:00:12;19.60;99.90
14411;DHT22;7290;50.854;4.354;2023-08-01T08:02:40;19.30;99.90
14411;DHT22;7290;50.854;4.354;2023-08-01T08:05:07;19.90;99.90
14411;DHT22;7290;50.854;4.354;2023-08-01T08:07:33;21.10;99.90
14411;DHT22;7290;50.854;4.354;2023-08-01T08:09:59;22.80;99.90
14411;DHT22;7290;50.854;4.354;2023-08-01T08:12:26;23.10;99.90
14411;DHT22;7290;50.854;4.354;2023-08-01T08:14:52;22.50;99.90
14411;DHT22;7290;50.854;4.354;2023-08-01T08:17:19;21.50;99.90
14411;DHT22;7290;50.854;4.354;2023-08-01T08:19:45;21.40;99.90
14411;DHT22;7290;50.854;4.354;2023-08-01T08:22:12;21.40;99.90
14411;DHT22;7290;50.854;4.354;2023-08-01T08:24:38;21.50;99.90
14411;DHT22;7290;50.854;4.354;2023-08-01T08:27:05;22.60;99.90
14411;DHT22;7290;50.854;4.354;2023-08-01T08:29:32;22.60;99.90
14411;DHT22;7290;50.854;4.354;2023-08-01T08:31:59;23.50;99.90
14411;DHT22;7290;50.854;4.354;2023-08-01T08:34:25;24.10;99.90
14411;DHT22;7290;50.854;4.354;2023-08-01T08:36:52;24.10;99.90
14411;DHT22;7290;50.854;4.354;2023-08-01T08:39:18;24.50;99.90
14411;DHT22;7290;50.854;4.354;2023-08-01T08:41:46;25.70;99.90
14411;DHT22;7290;50.854;4.354;2023-08-01T08:44:15;26.60;99.90
14411;DHT22;7290;50.854;4.354;2023-08-01T08:46:44;26.40;99.90
14411;DHT22;7290;50.854;4.354;2023-08-01T08:49:10;24.60;99.90
14411;DHT22;7290;50.854;4.354;2023-08-01T08:51:37;25.40;99.90
14411;DHT22;7290;50.854;4.354;2023-08-01T08:54:05;25.10;99.90
14411;DHT22;7290;50.854;4.354;2023-08-01T08:56:33;25.20;99.90
14411;DHT22;7290;50.854;4.354;2023-08-01T08:59:01;25.50;99.90
14411;DHT22;7290;50.854;4.354;2023-08-01T09:01:27;25.20;99.90
14411;DHT22;7290;50.854;4.354;2023-08-01T09:03:54;24.90;99.90
14411;DHT22;7290;50.854;4.354;2023-08-01T09:06:24;25.80;99.90
14411;DHT22;7290;50.854;4.354;2023-08-01T09:08:52;24.90;99.90
14411;DHT22;7290;50.854;4.354;2023-08-01T09:11:21;23.60;99.90
14411;DHT22;7290;50.854;4.354;2023-08-01T09:13:48;23.50;99.90
14411;DHT22;7290;50.854;4.354;2023-08-01T09:16:16;23.10;99.90
14411;DHT22;7290;50.854;4.354;2023-08-01T09:18:49;22.40;99.90
14411;DHT22;7290;50.854;4.354;2023-08-01T09:21:18;22.70;99.90
14411;DHT22;7290;50.854;4.354;2023-08-01T09:23:44;23.20;99.90
14411;DHT22;7290;50.854;4.354;2023-08-01T09:26:14;24.20;99.90
14411;DHT22;7290;50.854;4.354;2023-08-01T09:28:40;24.10;99.90
14411;DHT22;7290;50.854;4.354;2023-08-01T09:31:10;23.60;99.90
14411;DHT22;7290;50.854;4.354;2023-08-01T09:33:41;23.70;99.90
14411;DHT22;7290;50.854;4.354;2023-08-01T09:36:07;23.40;99.90
14411;DHT22;7290;50.854;4.354;2023-08-01T09:38:35;23.00;99.90
14411;DHT22;7290;50.854;4.354;2023-08-01T09:41:03;23.00;99.90
14411;DHT22;7290;50.854;4.354;2023-08-01T09:43:33;23.40;99.90
14411;DHT22;7290;50.854;4.354;2023-08-01T09:46:00;23.10;99.90
14411;DHT22;7290;50.854;4.354;2023-08-01T09:48:28;23.10;99.90
14411;DHT22;7290;50.854;4.354;2023-08-01T09:51:05;23.40;99.90
14411;DHT22;7290;50.854;4.354;2023-08-01T09:53:31;23.40;99.90
14411;DHT22;7290;50.854;4.354;2023-08-01T09:56:00;23.70;99.90
14411;DHT22;7290;50.854;4.354;2023-08-01T09:58:29;23.70;99.90
14411;DHT22;7290;50.854;4.354;2023-08-01T10:00:58;23.90;99.90
14411;DHT22;7290;50.854;4.354;2023-08-01T10:03:27;24.60;99.90
14411;DHT22;7290;50.854;4.354;2023-08-01T10:05:54;25.00;99.90
14411;DHT22;7290;50.854;4.354;2023-08-01T10:08:21;25.50;99.90
14411;DHT22;7290;50.854;4.354;2023-08-01T10:10:48;25.60;99.90
14411;DHT22;7290;50.854;4.354;2023-08-01T10:13:17;24.90;99.90
14411;DHT22;7290;50.854;4.354;2023-08-01T10:15:45;25.10;99.90
14411;DHT22;7290;50.854;4.354;2023-08-01T10:18:12;25.50;99.90
14411;DHT22;7290;50.854;4.354;2023-08-01T10:20:40;25.30;99.90
14411;DHT22;7290;50.854;4.354;2023-08-01T10:23:07;24.60;99.90
14411;DHT22;7290;50.854;4.354;2023-08-01T10:25:34;24.00;99.90
14411;DHT22;7290;50.854;4.354;2023-08-01T10:28:01;23.90;99.90
14411;DHT22;7290;50.854;4.354;2023-08-01T10:30:29;24.00;99.90
14411;DHT22;7290;50.854;4.354;2023-08-01T10:32:56;24.00;99.90
14411;DHT22;7290;50.854;4.354;2023-08-01T10:35:32;24.40;99.90
14411;DHT22;7290;50.854;4.354;2023-08-01T10:38:04;24.70;99.90
14411;DHT22;7290;50.854;4.354;2023-08-01T10:40:37;24.50;99.90
14411;DHT22;7290;50.854;4.354;2023-08-01T10:43:04;24.30;99.90
14411;DHT22;7290;50.854;4.354;2023-08-01T10:45:32;23.90;99.90
14411;DHT22;7290;50.854;4.354;2023-08-01T10:48:08;24.00;99.90
14411;DHT22;7290;50.854;4.354;2023-08-01T10:50:34;23.90;99.90
14411;DHT22;7290;50.854;4.354;2023-08-01T10:53:05;24.10;99.90
14411;DHT22;7290;50.854;4.354;2023-08-01T10:55:45;24.10;99.90
14411;DHT22;7290;50.854;4.354;2023-08-01T10:58:12;23.90;99.90
14411;DHT22;7290;50.854;4.354;2023-08-01T11:00:39;23.50;99.90
14411;DHT22;7290;50.854;4.354;2023-08-01T11:03:06;23.70;99.90
14411;DHT22;7290;50.854;4.354;2023-08-01T11:05:33;23.90;99.90
14411;DHT22;7290;50.854;4.354;2023-08-01T11:08:01;24.30;99.90
14411;DHT22;7290;50.854;4.354;2023-08-01T11:10:29;24.80;99.90
14411;DHT22;7290;50.854;4.354;2023-08-01T11:12:56;25.70;99.90
14411;DHT22;7290;50.854;4.354;2023-08-01T11:15:22;26.00;99.90
14411;DHT22;7290;50.854;4.354;2023-08-01T11:17:51;25.30;99.90
14411;DHT22;7290;50.854;4.354;2023-08-01T11:20:19;24.40;99.90
14411;DHT22;7290;50.854;4.354;2023-08-01T11:22:51;23.90;99.90
14411;DHT22;7290;50.854;4.354;2023-08-01T11:25:18;23.70;99.90
14411;DHT22;7290;50.854;4.354;2023-08-01T11:27:45;24.90;99.90
14411;DHT22;7290;50.854;4.354;2023-08-01T11:30:11;26.30;99.90
14411;DHT22;7290;50.854;4.354;2023-08-01T11:32:38;26.50;99.90
14411;DHT22;7290;50.854;4.354;2023-08-01T11:35:07;27.20;99.00
14411;DHT22;7290;50.854;4.354;2023-08-01T11:37:33;27.60;98.60
14411;DHT22;7290;50.854;4.354;2023-08-01T11:40:01;27.30;98.40
14411;DHT22;7290;50.854;4.354;2023-08-01T11:42:30;27.50;98.80
14411;DHT22;7290;50.854;4.354;2023-08-01T11:45:08;28.00;97.10
14411;DHT22;7290;50.854;4.354;2023-08-01T11:47:35;27.30;97.50
14411;DHT22;7290;50.854;4.354;2023-08-01T11:50:02;27.00;97.80
14411;DHT22;7290;50.854;4.354;2023-08-01T11:52:29;26.70;97.70
14411;DHT22;7290;50.854;4.354;2023-08-01T11:54:56;27.00;97.70
14411;DHT22;7290;50.854;4.354;2023-08-01T11:57:22;26.60;98.10
14411;DHT22;7290;50.854;4.354;2023-08-01T11:59:50;25.70;99.40
14411;DHT22;7290;50.854;4.354;2023-08-01T12:02:23;24.60;99.90
14411;DHT22;7290;50.854;4.354;2023-08-01T12:04:53;23.50;99.90
14411;DHT22;7290;50.854;4.354;2023-08-01T12:07:20;22.90;99.90
14411;DHT22;7290;50.854;4.354;2023-08-01T12:09:56;23.00;99.90
14411;DHT22;7290;50.854;4.354;2023-08-01T12:12:22;23.40;99.90
14411;DHT22;7290;50.854;4.354;2023-08-01T12:14:49;23.50;99.90
14411;DHT22;7290;50.854;4.354;2023-08-01T12:17:15;23.80;99.90
14411;DHT22;7290;50.854;4.354;2023-08-01T12:19:43;24.00;99.90
14411;DHT22;7290;50.854;4.354;2023-08-01T12:22:10;24.20;99.90
14411;DHT22;7290;50.854;4.354;2023-08-01T12:24:36;24.40;99.90
14411;DHT22;7290;50.854;4.354;2023-08-01T12:27:06;24.70;99.90
14411;DHT22;7290;50.854;4.354;2023-08-01T12:29:34;24.80;99.90
14411;DHT22;7290;50.854;4.354;2023-08-01T12:32:02;24.70;99.90
14411;DHT22;7290;50.854;4.354;2023-08-01T12:34:29;24.20;99.90
14411;DHT22;7290;50.854;4.354;2023-08-01T12:36:55;23.70;99.90
14411;DHT22;7290;50.854;4.354;2023-08-01T12:39:21;23.20;99.90
14411;DHT22;7290;50.854;4.354;2023-08-01T12:41:49;22.70;99.90
14411;DHT22;7290;50.854;4.354;2023-08-01T12:44:16;22.50;99.90
14411;DHT22;7290;50.854;4.354;2023-08-01T12:46:43;22.50;99.90
14411;DHT22;7290;50.854;4.354;2023-08-01T12:49:09;22.30;99.90
14411;DHT22;7290;50.854;4.354;2023-08-01T12:51:36;22.20;99.90
14411;DHT22;7290;50.854;4.354;2023-08-01T12:54:03;22.20;99.90
14411;DHT22;7290;50.854;4.354;2023-08-01T12:56:32;22.10;99.90
14411;DHT22;7290;50.854;4.354;2023-08-01T12:58:59;21.70;99.90
14411;DHT22;7290;50.854;4.354;2023-08-01T13:01:26;21.60;99.90
14411;DHT22;7290;50.854;4.354;2023-08-01T13:03:52;21.60;99.90
14411;DHT22;7290;50.854;4.354;2023-08-01T13:06:19;21.70;99.90
14411;DHT22;7290;50.854;4.354;2023-08-01T13:08:46;22.10;99.90
14411;DHT22;7290;50.854;4.354;2023-08-01T13:11:13;22.30;99.90
14411;DHT22;7290;50.854;4.354;2023-08-01T13:13:41;22.50;99.90
14411;DHT22;7290;50.854;4.354;2023-08-01T13:16:07;22.50;99.90
14411;DHT22;7290;50.854;4.354;2023-08-01T13:18:35;22.80;99.90
14411;DHT22;7290;50.854;4.354;2023-08-01T13:21:01;22.80;99.90
14411;DHT22;7290;50.854;4.354;2023-08-01T13:23:28;22.90;99.90
14411;DHT22;7290;50.854;4.354;2023-08-01T13:25:54;22.70;99.90
14411;DHT22;7290;50.854;4.354;2023-08-01T13:28:21;23.00;99.90
14411;DHT22;7290;50.854;4.354;2023-08-01T13:30:47;23.20;99.90
14411;DHT22;7290;50.854;4.354;2023-08-01T13:33:14;23.50;99.90
14411;DHT22;7290;50.854;4.354;2023-08-01T13:35:43;23.50;99.90
14411;DHT22;7290;50.854;4.354;2023-08-01T13:38:10;23.60;99.90
14411;DHT22;7290;50.854;4.354;2023-08-01T13:40:38;23.60;99.90
14411;DHT22;7290;50.854;4.354;2023-08-01T13:43:04;23.50;99.90
14411;DHT22;7290;50.854;4.354;2023-08-01T13:45:31;23.10;99.90
14411;DHT22;7290;50.854;4.354;2023-08-01T13:47:57;23.10;99.90
14411;DHT22;7290;50.854;4.354;2023-08-01T13:50:25;23.40;99.90
14411;DHT22;7290;50.854;4.354;2023-08-01T13:52:52;23.80;99.90
14411;DHT22;7290;50.854;4.354;2023-08-01T13:55:18;23.90;99.90
14411;DHT22;7290;50.854;4.354;2023-08-01T13:57:45;23.80;99.90
14411;DHT22;7290;50.854;4.354;2023-08-01T14:00:12;23.80;99.90
14411;DHT22;7290;50.854;4.354;2023-08-01T14:02:38;24.10;99.90
14411;DHT22;7290;50.854;4.354;2023-08-01T14:05:05;23.70;99.90
14411;DHT22;7290;50.854;4.354;2023-08-01T14:07:35;23.20;99.90
14411;DHT22;7290;50.854;4.354;2023-08-01T14:10:02;22.90;99.90
14411;DHT22;7290;50.854;4.354;2023-08-01T14:12:29;22.80;99.90
14411;DHT22;7290;50.854;4.354;2023-08-01T14:14:55;22.50;99.90
14411;DHT22;7290;50.854;4.354;2023-08-01T14:17:25;22.30;99.90
14411;DHT22;7290;50.854;4.354;2023-08-01T14:19:51;22.30;99.90
14411;DHT22;7290;50.854;4.354;2023-08-01T14:22:18;22.00;99.90
14411;DHT22;7290;50.854;4.354;2023-08-01T14:24:45;21.90;99.90
14411;DHT22;7290;50.854;4.354;2023-08-01T14:27:11;21.90;99.90
14411;DHT22;7290;50.854;4.354;2023-08-01T14:29:38;21.90;99.90
14411;DHT22;7290;50.854;4.354;2023-08-01T14:32:05;21.90;99.90
14411;DHT22;7290;50.854;4.354;2023-08-01T14:34:32;21.90;99.90
14411;DHT22;7290;50.854;4.354;2023-08-01T14:36:59;21.80;99.90
14411;DHT22;7290;50.854;4.354;2023-08-01T14:39:25;21.70;99.90
14411;DHT22;7290;50.854;4.354;2023-08-01T14:41:52;21.50;99.90
14411;DHT22;7290;50.854;4.354;2023-08-01T14:44:19;21.50;99.90
14411;DHT22;7290;50.854;4.354;2023-08-01T14:46:45;21.50;99.90
14411;DHT22;7290;50.854;4.354;2023-08-01T14:49:12;21.60;99.90
14411;DHT22;7290;50.854;4.354;2023-08-01T14:51:38;21.60;99.90
14411;DHT22;7290;50.854;4.354;2023-08-01T14:54:10;22.00;99.90
14411;DHT22;7290;50.854;4.354;2023-08-01T14:56:36;22.10;99.90
14411;DHT22;7290;50.854;4.354;2023-08-01T14:59:04;22.10;99.90
14411;DHT22;7290;50.854;4.354;2023-08-01T15:01:33;21.90;99.90
14411;DHT22;7290;50.854;4.354;2023-08-01T15:04:00;21.70;99.90
14411;DHT22;7290;50.854;4.354;2023-08-01T15:06:26;21.70;99.90
14411;DHT22;7290;50.854;4.354;2023-08-01T15:08:53;21.60;99.90
14411;DHT22;7290;50.854;4.354;2023-08-01T15:11:20;21.40;99.90
14411;DHT22;7290;50.854;4.354;2023-08-01T15:13:47;21.20;99.90
14411;DHT22;7290;50.854;4.354;2023-08-01T15:16:13;20.90;99.90
14411;DHT22;7290;50.854;4.354;2023-08-01T15:18:43;20.70;99.90
14411;DHT22;7290;50.854;4.354;2023-08-01T15:21:10;20.30;99.90
14411;DHT22;7290;50.854;4.354;2023-08-01T15:23:39;20.30;99.90
14411;DHT22;7290;50.854;4.354;2023-08-01T15:26:05;20.30;99.90
14411;DHT22;7290;50.854;4.354;2023-08-01T15:28:32;20.10;99.90
14411;DHT22;7290;50.854;4.354;2023-08-01T15:31:02;20.20;99.90
14411;DHT22;7290;50.854;4.354;2023-08-01T15:33:30;20.40;99.90
14411;DHT22;7290;50.854;4.354;2023-08-01T15:36:00;20.70;99.90
14411;DHT22;7290;50.854;4.354;2023-08-01T15:38:26;20.60;99.90
14411;DHT22;7290;50.854;4.354;2023-08-01T15:40:54;20.50;99.90
14411;DHT22;7290;50.854;4.354;2023-08-01T15:43:22;20.60;99.90